This is the latest recevied weather packets stored in our database for station/object LRSB. If no packets are shown the sender has not sent any weather packets the latest 10 day(s).
| Time | Temp. | Humidity | Pressure | Rain* | Wind** | Luminosity | Snow |
|---|---|---|---|---|---|---|---|
| 1778060891 | 25° C | 30% | 1014 hPa | - | - | - | - |
| 1778059991 | 25° C | 30% | 1014 hPa | - | - | - | - |
| 1778059091 | 23.89° C | 31% | 1014 hPa | - | - | - | - |
| 1778058191 | 23.89° C | 29% | 1014 hPa | - | - | - | - |
| 1778057291 | 22.78° C | 31% | 1014 hPa | - | - | - | - |
| 1778056391 | 22.78° C | 31% | 1014 hPa | - | - | - | - |
| 1778055488 | 22.22° C | 38% | 1014 hPa | - | - | - | - |
| 1778054591 | 22.22° C | 38% | 1014 hPa | - | - | - | - |
| 1778053691 | 21.11° C | 40% | 1014 hPa | - | - | - | - |
| 1778052791 | 21.11° C | 40% | 1014 hPa | - | - | - | - |
| 1778051891 | 18.89° C | 46% | 1014 hPa | - | - | - | - |
| 1778050991 | 18.89° C | 46% | 1014 hPa | - | - | - | - |
| 1778050091 | 17.78° C | 49% | 1014 hPa | - | - | - | - |
| 1778049191 | 17.78° C | 49% | 1014 hPa | - | - | - | - |
| 1778048291 | 17.78° C | 49% | 1014 hPa | - | - | - | - |
| 1778047393 | 17.78° C | 49% | 1014 hPa | - | - | - | - |
| 1778046492 | 15° C | 59% | 1015 hPa | - | - | - | - |
| 1778045599 | 15° C | 59% | 1015 hPa | - | - | - | - |
| 1778044691 | 11.11° C | 77% | 1014 hPa | - | - | - | - |
| 1778043805 | 11.11° C | 77% | 1014 hPa | - | - | - | - |
| 1778042907 | 12.22° C | 67% | 1014 hPa | - | - | - | - |
| 1778041995 | 12.22° C | 67% | 1014 hPa | - | - | - | - |
| 1778041092 | 10° C | 76% | 1014 hPa | - | - | - | - |
| 1778040191 | 10° C | 76% | 1014 hPa | - | - | - | - |
| 1778039292 | 7.78° C | 76% | 1014 hPa | - | - | - | - |
* Rain since midnight (hover to see other rain measurements)
** Current wind speed in m/s (hover to see current wind gust speed)